Time;durP1;ratioP1;P1;durP2;ratioP2;P2;SDS_P1;SDS_P2;PMS_P1;PMS_P2;Temp;Humidity;BMP_temperature;BMP_pressure;BME280_temperature;BME280_humidity;BME280_pressure;Samples;Min_cycle;Max_cycle;Signal;HPM_P1;HPM_P2
2022/04/07 00:00:36;;;;;;;3.08;1.40;;;9.10;99.90;;;;;;5038859;28;20045;-86
2022/04/07 00:03:02;;;;;;;4.55;2.35;;;9.10;99.90;;;;;;4975971;28;20036;-85
2022/04/07 00:05:27;;;;;;;4.63;3.40;;;9.10;99.90;;;;;;5023289;28;20041;-85
2022/04/07 00:07:53;;;;;;;3.00;2.17;;;9.00;99.90;;;;;;4973057;28;20030;-86
2022/04/07 00:10:18;;;;;;;3.05;1.88;;;9.00;99.90;;;;;;4989159;28;20026;-85
2022/04/07 00:12:44;;;;;;;3.60;1.50;;;9.00;99.90;;;;;;4975029;28;20033;-86
2022/04/07 00:15:23;;;;;;;1.38;1.27;;;9.00;99.90;;;;;;4987700;28;20034;-85
2022/04/07 00:17:48;;;;;;;5.25;1.75;;;9.00;99.90;;;;;;4965853;28;20041;-86
2022/04/07 00:20:14;;;;;;;2.83;1.67;;;9.00;99.90;;;;;;4986850;28;20037;-86
2022/04/07 00:22:41;;;;;;;5.72;1.55;;;8.90;99.90;;;;;;4974020;28;20033;-86
2022/04/07 00:25:06;;;;;;;2.05;1.40;;;8.90;99.90;;;;;;4976556;28;20040;-86
2022/04/07 00:27:32;;;;;;;2.72;1.83;;;8.80;99.90;;;;;;4974502;28;20034;-86
2022/04/07 00:29:57;;;;;;;3.72;1.10;;;8.80;99.90;;;;;;4987834;28;20041;-86
2022/04/07 00:32:23;;;;;;;2.42;1.35;;;8.80;99.90;;;;;;5024092;28;20041;-86
2022/04/07 00:34:54;;;;;;;2.90;1.00;;;8.70;99.90;;;;;;4968944;28;20045;-85
2022/04/07 00:37:23;;;;;;;1.65;0.93;;;8.80;99.90;;;;;;4983975;28;20125;-86
2022/04/07 00:39:51;;;;;;;1.02;0.93;;;8.70;99.90;;;;;;4971586;28;20125;-86
2022/04/07 00:42:17;;;;;;;2.47;0.85;;;8.80;99.90;;;;;;4988477;28;20500;-86
2022/04/07 00:44:43;;;;;;;1.63;0.93;;;8.80;99.90;;;;;;4965723;28;20107;-86
2022/04/07 00:47:09;;;;;;;1.45;1.13;;;8.70;99.90;;;;;;5002738;28;20068;-85
2022/04/07 00:49:35;;;;;;;2.97;1.27;;;8.80;99.90;;;;;;4971735;28;20200;-86
2022/04/07 00:52:01;;;;;;;1.73;1.35;;;8.80;99.90;;;;;;4987674;28;20118;-85
2022/04/07 00:54:26;;;;;;;4.20;1.45;;;8.70;99.90;;;;;;4974154;28;20505;-86
2022/04/07 00:56:53;;;;;;;1.67;1.35;;;8.80;99.90;;;;;;4973647;28;20402;-86
2022/04/07 00:59:19;;;;;;;3.22;1.98;;;8.70;99.90;;;;;;4987639;28;20036;-86
2022/04/07 01:01:45;;;;;;;4.30;1.23;;;8.70;99.90;;;;;;5016763;28;20703;-85
2022/04/07 01:04:11;;;;;;;2.90;1.30;;;8.70;99.90;;;;;;4988138;28;20477;-86
2022/04/07 01:06:36;;;;;;;1.70;1.38;;;8.60;99.90;;;;;;4985544;28;20053;-86
2022/04/07 01:09:02;;;;;;;4.20;1.08;;;8.70;99.90;;;;;;4973276;28;20103;-86
2022/04/07 01:11:28;;;;;;;1.48;0.98;;;8.60;99.90;;;;;;5022020;28;20042;-86
2022/04/07 01:13:54;;;;;;;3.65;0.82;;;8.60;99.90;;;;;;4970319;28;20457;-86
2022/04/07 01:16:26;;;;;;;7.70;1.70;;;8.60;99.90;;;;;;4987137;28;20062;-83
2022/04/07 01:18:52;;;;;;;1.73;1.20;;;8.60;99.90;;;;;;4989191;28;20034;-84
2022/04/07 01:21:17;;;;;;;1.00;0.73;;;8.40;99.90;;;;;;4985694;28;20409;-84
2022/04/07 01:23:53;;;;;;;1.73;1.00;;;8.40;99.90;;;;;;5012264;28;20030;-84
2022/04/07 01:26:19;;;;;;;1.17;0.70;;;8.40;99.90;;;;;;4982380;28;20108;-86
2022/04/07 01:28:48;;;;;;;4.40;1.27;;;8.50;99.90;;;;;;4985948;28;20527;-86
2022/04/07 01:31:14;;;;;;;6.35;2.60;;;8.50;99.90;;;;;;4986731;28;20084;-86
2022/04/07 01:33:39;;;;;;;0.93;0.85;;;8.60;99.90;;;;;;4987477;28;20034;-86
2022/04/07 01:36:05;;;;;;;3.22;1.25;;;8.50;99.90;;;;;;4988722;28;20093;-86
2022/04/07 01:38:30;;;;;;;2.80;0.80;;;8.50;99.90;;;;;;5011547;28;20103;-86
2022/04/07 01:40:58;;;;;;;3.17;1.00;;;8.60;99.90;;;;;;4972148;28;20505;-86
2022/04/07 01:43:26;;;;;;;2.28;0.85;;;8.50;99.90;;;;;;4972359;28;20512;-86
2022/04/07 01:45:52;;;;;;;2.05;0.95;;;8.60;99.90;;;;;;4973788;28;20038;-86
2022/04/07 01:48:17;;;;;;;1.63;0.88;;;8.70;99.90;;;;;;5002054;28;20414;-86
2022/04/07 01:50:43;;;;;;;1.02;0.50;;;8.70;99.90;;;;;;4997767;28;20785;-86
2022/04/07 01:53:08;;;;;;;1.67;1.00;;;8.60;99.90;;;;;;5021803;28;20030;-86
2022/04/07 01:55:34;;;;;;;3.50;1.35;;;8.70;99.90;;;;;;4970470;28;20544;-86
2022/04/07 01:57:59;;;;;;;3.03;1.13;;;8.60;99.90;;;;;;4988149;28;20034;-86
2022/04/07 02:00:25;;;;;;;3.45;1.10;;;8.70;99.90;;;;;;4972114;28;20030;-86
2022/04/07 02:02:51;;;;;;;2.85;1.10;;;8.80;99.90;;;;;;5004839;28;21263;-87
2022/04/07 02:05:16;;;;;;;2.78;0.93;;;8.80;99.90;;;;;;4972710;28;20498;-87
2022/04/07 02:07:43;;;;;;;5.57;0.77;;;8.80;99.90;;;;;;4972101;28;20073;-86
2022/04/07 02:10:09;;;;;;;1.38;0.75;;;8.90;99.90;;;;;;4974005;28;20454;-86
2022/04/07 02:12:36;;;;;;;3.47;1.00;;;8.80;99.90;;;;;;4969392;28;20033;-87
2022/04/07 02:15:02;;;;;;;1.35;0.70;;;8.90;99.90;;;;;;5037974;28;20044;-86
2022/04/07 02:17:27;;;;;;;4.15;0.88;;;8.90;99.90;;;;;;4971026;28;20026;-86
2022/04/07 02:19:55;;;;;;;2.85;0.77;;;8.90;99.90;;;;;;4987002;28;20257;-86
2022/04/07 02:22:20;;;;;;;0.85;0.63;;;8.90;99.90;;;;;;4971905;28;20305;-86
2022/04/07 02:24:46;;;;;;;1.23;0.70;;;8.90;99.90;;;;;;4971982;28;20040;-86
2022/04/07 02:27:12;;;;;;;1.42;0.80;;;8.90;99.90;;;;;;4972334;28;20085;-86
2022/04/07 02:29:37;;;;;;;2.97;1.10;;;9.00;99.90;;;;;;4980952;28;20076;-86
2022/04/07 02:32:05;;;;;;;3.05;0.90;;;9.00;99.90;;;;;;4971561;28;20113;-86
2022/04/07 02:34:30;;;;;;;6.68;0.88;;;8.90;99.90;;;;;;5018282;28;20038;-86
2022/04/07 02:36:56;;;;;;;2.55;0.80;;;8.70;99.90;;;;;;4986057;28;20075;-84
2022/04/07 02:39:21;;;;;;;3.58;1.00;;;8.80;99.90;;;;;;4970792;28;20434;-84
2022/04/07 02:41:47;;;;;;;3.38;1.15;;;8.80;99.90;;;;;;5011814;28;20441;-84
2022/04/07 02:44:12;;;;;;;0.80;0.65;;;8.90;99.90;;;;;;4984580;28;20034;-84
2022/04/07 02:46:38;;;;;;;3.25;1.25;;;8.90;99.90;;;;;;4971095;28;20076;-84
2022/04/07 02:49:04;;;;;;;2.92;0.93;;;8.90;99.90;;;;;;5002887;28;20030;-84
2022/04/07 02:51:31;;;;;;;0.90;0.80;;;8.90;99.90;;;;;;5018620;28;20026;-85
2022/04/07 02:53:58;;;;;;;4.97;1.13;;;8.90;99.90;;;;;;5003226;28;20041;-85
2022/04/07 02:56:27;;;;;;;0.65;0.55;;;8.90;99.90;;;;;;4981433;28;20542;-84
2022/04/07 02:58:52;;;;;;;3.47;1.02;;;8.90;99.90;;;;;;4986875;28;20053;-85
2022/04/07 03:01:18;;;;;;;2.97;1.67;;;9.00;99.90;;;;;;5019667;28;20133;-85
2022/04/07 03:03:44;;;;;;;1.75;0.85;;;8.90;99.90;;;;;;4971744;28;20034;-85
2022/04/07 03:06:09;;;;;;;3.42;0.90;;;8.90;99.90;;;;;;5020250;28;20030;-85
2022/04/07 03:08:35;;;;;;;4.88;2.03;;;8.90;99.90;;;;;;4969951;28;20485;-85
2022/04/07 03:11:01;;;;;;;8.05;1.52;;;8.80;99.90;;;;;;4986433;28;20525;-85
2022/04/07 03:13:27;;;;;;;2.97;1.20;;;8.90;99.90;;;;;;4970580;28;20494;-85
2022/04/07 03:15:53;;;;;;;4.18;1.85;;;8.90;99.90;;;;;;4972171;28;20553;-85
2022/04/07 03:18:18;;;;;;;3.20;0.82;;;8.90;99.90;;;;;;4968875;28;20109;-85
2022/04/07 03:20:44;;;;;;;3.08;1.35;;;8.80;99.90;;;;;;5036528;28;20065;-85
2022/04/07 03:23:09;;;;;;;2.80;0.95;;;8.80;99.90;;;;;;4972116;28;20116;-83
2022/04/07 03:25:36;;;;;;;1.75;1.05;;;8.80;99.90;;;;;;4971757;28;20046;-85
2022/04/07 03:28:04;;;;;;;4.93;0.98;;;8.90;99.90;;;;;;5019778;28;20509;-85
2022/04/07 03:30:30;;;;;;;1.33;0.90;;;8.90;99.90;;;;;;4985326;28;20104;-83
2022/04/07 03:32:56;;;;;;;4.85;0.60;;;8.90;99.90;;;;;;5021633;28;20045;-83
2022/04/07 03:35:27;;;;;;;1.77;1.05;;;8.90;99.90;;;;;;4959269;28;20030;-85
2022/04/07 03:37:53;;;;;;;3.75;0.98;;;8.90;99.90;;;;;;4971365;28;20041;-85
2022/04/07 03:40:18;;;;;;;1.20;0.70;;;8.90;99.90;;;;;;4989348;28;20030;-84
2022/04/07 03:42:44;;;;;;;3.60;0.93;;;8.90;99.90;;;;;;4975534;28;20946;-84
2022/04/07 03:45:10;;;;;;;4.97;1.00;;;8.90;99.90;;;;;;4987767;28;20394;-84
2022/04/07 03:47:35;;;;;;;2.53;0.80;;;8.90;99.90;;;;;;4988314;28;20856;-84
2022/04/07 03:50:01;;;;;;;3.65;1.52;;;8.90;99.90;;;;;;4991922;28;20559;-84
2022/04/07 03:52:28;;;;;;;2.75;0.82;;;8.90;99.90;;;;;;4990103;28;20505;-84
2022/04/07 03:54:53;;;;;;;3.35;1.08;;;8.90;99.90;;;;;;4974340;28;20050;-84
2022/04/07 03:57:19;;;;;;;6.72;1.83;;;8.90;99.90;;;;;;4974829;28;20050;-84
2022/04/07 03:59:44;;;;;;;2.42;0.80;;;8.90;99.90;;;;;;5041152;28;20037;-84
2022/04/07 04:02:10;;;;;;;2.63;0.70;;;8.90;99.90;;;;;;4989621;28;20030;-84
2022/04/07 04:04:36;;;;;;;7.45;1.35;;;9.00;99.90;;;;;;4974947;28;20107;-84
2022/04/07 04:07:02;;;;;;;1.60;1.00;;;8.90;99.90;;;;;;4973874;28;20037;-83
2022/04/07 04:09:27;;;;;;;3.88;0.88;;;8.90;99.90;;;;;;5038252;28;20026;-83
2022/04/07 04:11:53;;;;;;;3.28;0.85;;;9.00;99.90;;;;;;5006300;28;20109;-84
2022/04/07 04:14:19;;;;;;;3.55;1.15;;;8.90;99.90;;;;;;4988453;28;20033;-83
2022/04/07 04:16:44;;;;;;;4.22;1.08;;;9.00;99.90;;;;;;4972020;28;20041;-84
2022/04/07 04:19:10;;;;;;;1.95;0.60;;;9.00;99.90;;;;;;4989794;28;20064;-84
2022/04/07 04:21:36;;;;;;;1.73;0.60;;;9.00;99.90;;;;;;5022018;28;20478;-84
2022/04/07 04:24:02;;;;;;;3.22;0.60;;;9.00;99.90;;;;;;4991524;28;20030;-83
2022/04/07 04:26:27;;;;;;;2.35;0.52;;;9.00;99.90;;;;;;4974489;28;20026;-84
2022/04/07 04:28:53;;;;;;;2.92;0.77;;;9.00;99.90;;;;;;4972619;28;20037;-84
2022/04/07 04:31:20;;;;;;;2.80;0.60;;;9.10;99.90;;;;;;4974433;28;20402;-83
2022/04/07 04:33:45;;;;;;;2.88;0.95;;;9.00;99.90;;;;;;5022646;28;20516;-83
2022/04/07 04:36:11;;;;;;;4.13;0.82;;;9.10;99.90;;;;;;4975811;28;20046;-84
2022/04/07 04:38:37;;;;;;;7.57;0.98;;;9.10;99.90;;;;;;4974447;28;20048;-84
2022/04/07 04:41:02;;;;;;;5.57;2.25;;;9.10;99.90;;;;;;4972662;28;20033;-84
2022/04/07 04:43:28;;;;;;;2.15;0.93;;;9.20;99.90;;;;;;5020600;28;20030;-83
2022/04/07 04:45:53;;;;;;;3.40;0.80;;;9.20;99.90;;;;;;4974443;28;20056;-83
2022/04/07 04:48:19;;;;;;;4.13;1.20;;;9.20;99.90;;;;;;4974423;28;20547;-85
2022/04/07 04:50:44;;;;;;;4.45;0.95;;;9.20;99.90;;;;;;4973826;28;20069;-86
2022/04/07 04:53:10;;;;;;;4.47;1.13;;;9.20;99.90;;;;;;4978776;28;20047;-86
2022/04/07 04:55:36;;;;;;;2.65;0.95;;;9.10;99.90;;;;;;4972147;28;20084;-85
2022/04/07 04:58:01;;;;;;;2.55;1.63;;;9.10;99.90;;;;;;4983686;28;20093;-86
2022/04/07 05:00:27;;;;;;;0.70;0.70;;;9.10;99.90;;;;;;5022621;28;20402;-87
2022/04/07 05:02:52;;;;;;;1.85;0.93;;;9.10;99.90;;;;;;4972530;28;20107;-86
2022/04/07 05:05:24;;;;;;;3.53;0.70;;;9.00;99.90;;;;;;4975021;28;20034;-86
2022/04/07 05:07:50;;;;;;;2.83;1.10;;;9.00;99.90;;;;;;5018712;28;20053;-85
2022/04/07 05:10:15;;;;;;;3.60;1.60;;;9.00;99.90;;;;;;5040298;28;20041;-86
2022/04/07 05:12:41;;;;;;;1.52;0.70;;;8.90;99.90;;;;;;4974224;28;20057;-86
2022/04/07 05:15:07;;;;;;;2.70;1.20;;;9.00;99.90;;;;;;4975086;28;20052;-85
2022/04/07 05:17:33;;;;;;;3.20;1.70;;;8.90;99.90;;;;;;5025793;28;20029;-85
2022/04/07 05:19:59;;;;;;;2.58;0.90;;;8.90;99.90;;;;;;4974781;28;20624;-85
2022/04/07 05:22:24;;;;;;;1.27;0.77;;;8.90;99.90;;;;;;4959185;28;20487;-85
2022/04/07 05:24:55;;;;;;;1.30;1.05;;;9.00;99.90;;;;;;4965056;28;20494;-85
2022/04/07 05:27:21;;;;;;;2.63;0.98;;;9.00;99.90;;;;;;4957373;28;20029;-87
2022/04/07 05:29:46;;;;;;;1.48;1.23;;;8.90;99.90;;;;;;4974587;28;20390;-85
2022/04/07 05:32:12;;;;;;;3.85;1.13;;;9.00;99.90;;;;;;4986786;28;20041;-85
2022/04/07 05:34:39;;;;;;;3.95;1.60;;;8.90;99.90;;;;;;4987239;28;20049;-85
2022/04/07 05:37:04;;;;;;;1.60;1.10;;;8.90;99.90;;;;;;4987977;28;20473;-86
2022/04/07 05:39:30;;;;;;;1.80;1.08;;;9.00;99.90;;;;;;4973418;28;20040;-85
2022/04/07 05:41:56;;;;;;;2.95;1.67;;;8.90;99.90;;;;;;4972961;28;20022;-85
2022/04/07 05:44:21;;;;;;;4.88;1.13;;;9.00;99.90;;;;;;4974469;28;20030;-85
2022/04/07 05:46:52;;;;;;;4.22;1.33;;;9.00;99.90;;;;;;4990602;28;20069;-85
2022/04/07 05:49:20;;;;;;;1.70;0.73;;;9.00;99.90;;;;;;4974101;28;20029;-87
2022/04/07 05:51:50;;;;;;;3.67;1.27;;;9.00;99.90;;;;;;4965585;28;20064;-86
2022/04/07 05:54:18;;;;;;;2.00;1.23;;;9.00;99.90;;;;;;4992495;28;20116;-87
2022/04/07 05:56:44;;;;;;;1.50;1.02;;;9.00;99.90;;;;;;4987337;28;20053;-86
2022/04/07 05:59:09;;;;;;;3.10;1.08;;;8.90;99.90;;;;;;4987233;28;20025;-86
2022/04/07 06:01:35;;;;;;;1.65;0.80;;;9.00;99.90;;;;;;4972556;28;20140;-87
2022/04/07 06:04:00;;;;;;;3.10;0.90;;;9.00;99.90;;;;;;4989977;28;20022;-86
2022/04/07 06:06:26;;;;;;;2.45;0.88;;;9.10;99.90;;;;;;5037760;28;20033;-87
2022/04/07 06:08:52;;;;;;;3.03;1.02;;;9.10;99.90;;;;;;4989468;28;20042;-87
2022/04/07 06:11:17;;;;;;;2.10;0.70;;;9.10;99.90;;;;;;4971189;28;20089;-87
2022/04/07 06:13:55;;;;;;;1.77;0.90;;;9.20;99.90;;;;;;4986283;28;20116;-87
2022/04/07 06:16:20;;;;;;;2.85;0.70;;;9.20;99.90;;;;;;4968560;28;20040;-88
2022/04/07 06:18:46;;;;;;;1.90;0.90;;;9.20;99.90;;;;;;4973188;28;20397;-88
2022/04/07 06:21:11;;;;;;;1.45;0.45;;;9.20;99.90;;;;;;4983614;28;20030;-87
2022/04/07 06:23:37;;;;;;;2.45;1.42;;;9.10;99.90;;;;;;4971792;28;20099;-88
2022/04/07 06:26:03;;;;;;;1.13;0.60;;;9.20;99.90;;;;;;4974483;28;20029;-87
2022/04/07 06:28:46;;;;;;;2.75;1.05;;;9.10;99.90;;;;;;4987785;28;20030;-88
2022/04/07 06:31:12;;;;;;;2.65;1.00;;;9.10;99.90;;;;;;4987108;28;20038;-87
2022/04/07 06:33:38;;;;;;;0.82;0.45;;;9.10;99.90;;;;;;4973264;28;20034;-88
2022/04/07 06:36:07;;;;;;;1.00;0.70;;;9.10;99.90;;;;;;4990411;28;20034;-89
2022/04/07 06:38:33;;;;;;;1.20;0.63;;;9.10;99.90;;;;;;4988747;28;20034;-87
2022/04/07 06:41:13;;;;;;;2.65;1.02;;;9.10;99.90;;;;;;4970666;28;20743;-88
2022/04/07 06:43:39;;;;;;;0.70;0.60;;;9.10;99.90;;;;;;4971474;28;20037;-88
2022/04/07 06:46:05;;;;;;;3.00;0.68;;;9.20;99.90;;;;;;4972733;28;20124;-88
2022/04/07 06:48:30;;;;;;;0.30;0.30;;;9.10;99.90;;;;;;4971045;28;20117;-88
2022/04/07 06:50:56;;;;;;;0.60;0.60;;;9.10;99.90;;;;;;4974820;28;20120;-88
2022/04/07 06:53:22;;;;;;;2.08;0.50;;;9.10;99.90;;;;;;4973458;28;20022;-88
2022/04/07 06:55:53;;;;;;;2.15;0.90;;;9.10;99.90;;;;;;4997140;28;20041;-87
2022/04/07 06:58:25;;;;;;;3.17;0.57;;;9.10;99.90;;;;;;4988323;28;20399;-88
2022/04/07 07:00:51;;;;;;;1.92;0.60;;;9.20;99.90;;;;;;4973595;28;20034;-87
2022/04/07 07:03:16;;;;;;;3.05;0.75;;;9.10;99.90;;;;;;4971645;28;20034;-87
2022/04/07 07:16:01;;;;;;;1.83;0.80;;;9.20;99.90;;;;;;5005310;28;20045;-87
2022/04/07 07:18:53;;;;;;;1.60;1.08;;;9.20;99.90;;;;;;4993027;28;20041;-87
2022/04/07 07:21:20;;;;;;;2.97;0.43;;;9.20;99.90;;;;;;4974301;28;20226;-87
2022/04/07 07:24:36;;;;;;;4.07;1.02;;;9.20;99.90;;;;;;5007046;28;20026;-87
2022/04/07 07:27:02;;;;;;;3.85;1.08;;;9.20;99.90;;;;;;4992029;28;20037;-87
2022/04/07 07:29:45;;;;;;;5.18;0.52;;;9.20;99.90;;;;;;4981565;28;20474;-88
2022/04/07 07:32:12;;;;;;;1.77;0.75;;;9.20;99.90;;;;;;4950038;28;20034;-88
2022/04/07 07:34:38;;;;;;;1.13;0.50;;;9.10;99.90;;;;;;5003753;28;20080;-88
2022/04/07 07:37:04;;;;;;;0.30;0.25;;;9.20;99.90;;;;;;4970403;28;20474;-88
2022/04/07 07:39:30;;;;;;;0.63;0.30;;;9.20;99.90;;;;;;4971386;28;20022;-88
2022/04/07 07:41:56;;;;;;;1.50;0.52;;;9.20;99.90;;;;;;4984218;28;20238;-88
2022/04/07 07:44:24;;;;;;;1.75;0.40;;;9.10;99.90;;;;;;4986533;28;20482;-88
2022/04/07 07:46:50;;;;;;;6.03;0.32;;;9.10;99.90;;;;;;4983400;28;20161;-89
2022/04/07 07:49:16;;;;;;;0.57;0.40;;;9.10;99.90;;;;;;4998490;28;20050;-88
2022/04/07 07:51:42;;;;;;;3.00;0.68;;;9.10;99.90;;;;;;4978594;28;20057;-88
2022/04/07 07:54:08;;;;;;;0.98;0.85;;;9.10;99.90;;;;;;4991448;28;20030;-88
2022/04/07 07:56:33;;;;;;;2.25;0.60;;;9.10;99.90;;;;;;4979184;28;20490;-88
2022/04/07 07:58:59;;;;;;;1.65;0.32;;;9.10;99.90;;;;;;4986880;28;20026;-88
2022/04/07 08:01:24;;;;;;;1.35;0.90;;;9.10;99.90;;;;;;4991095;28;20150;-87
2022/04/07 08:10:33;;;;;;;0.50;0.50;;;9.10;99.90;;;;;;5012372;28;20109;-88
2022/04/07 08:13:23;;;;;;;0.52;0.47;;;9.10;99.90;;;;;;4972746;28;20113;-88
2022/04/07 08:15:49;;;;;;;1.95;0.70;;;9.10;99.90;;;;;;4992590;28;20091;-88
2022/04/07 08:18:15;;;;;;;1.75;0.73;;;9.10;99.90;;;;;;4980108;28;20432;-87
2022/04/07 08:20:40;;;;;;;1.42;0.75;;;9.10;99.90;;;;;;4974202;28;20045;-87
2022/04/07 08:23:06;;;;;;;0.63;0.45;;;9.10;99.90;;;;;;4997674;28;20033;-88
2022/04/07 08:25:32;;;;;;;0.82;0.77;;;9.10;99.90;;;;;;4984154;28;20473;-87
2022/04/07 08:28:23;;;;;;;2.20;0.75;;;9.20;99.90;;;;;;4987797;28;20127;-86
2022/04/07 08:30:55;;;;;;;2.55;0.35;;;9.20;99.90;;;;;;4994685;28;20105;-87
2022/04/07 08:33:20;;;;;;;1.10;0.60;;;9.20;99.90;;;;;;4960374;28;20041;-86
2022/04/07 08:35:46;;;;;;;2.92;0.60;;;9.30;99.90;;;;;;4968513;28;20026;-87
2022/04/07 08:38:16;;;;;;;0.70;0.50;;;9.40;99.90;;;;;;4979151;28;20081;-86
2022/04/07 08:40:42;;;;;;;5.20;0.80;;;9.40;99.90;;;;;;4997234;28;20045;-85
2022/04/07 08:43:09;;;;;;;2.30;0.52;;;9.40;99.90;;;;;;4971862;28;20468;-85
2022/04/07 08:45:36;;;;;;;0.93;0.50;;;9.40;99.90;;;;;;4969892;28;20041;-85
2022/04/07 08:48:02;;;;;;;0.60;0.30;;;9.50;99.90;;;;;;4980070;28;20042;-85
2022/04/07 08:50:27;;;;;;;0.60;0.50;;;9.50;99.90;;;;;;4980738;28;20030;-85
2022/04/07 08:52:54;;;;;;;0.70;0.52;;;9.50;99.90;;;;;;4981535;28;20030;-86
2022/04/07 08:55:20;;;;;;;0.98;0.40;;;9.50;99.90;;;;;;4985660;28;20057;-85
2022/04/07 08:57:46;;;;;;;4.78;0.40;;;9.50;99.90;;;;;;4979813;28;20054;-85
2022/04/07 09:00:12;;;;;;;1.63;0.52;;;9.50;99.90;;;;;;4991678;28;20510;-85
2022/04/07 09:02:38;;;;;;;0.40;0.40;;;9.50;99.90;;;;;;4975699;28;20097;-86
2022/04/07 09:05:12;;;;;;;1.55;0.70;;;9.60;99.90;;;;;;4996842;28;20429;-86
2022/04/07 09:07:38;;;;;;;0.75;0.30;;;9.60;99.90;;;;;;4980494;28;20037;-86
2022/04/07 09:10:04;;;;;;;0.28;0.28;;;9.60;99.90;;;;;;4989278;28;20064;-86
2022/04/07 09:12:30;;;;;;;0.30;0.30;;;9.60;99.90;;;;;;4983225;28;20041;-86
2022/04/07 09:17:52;;;;;;;0.32;0.17;;;9.70;99.90;;;;;;4972219;28;20029;-86
2022/04/07 09:20:18;;;;;;;1.73;0.50;;;9.70;99.90;;;;;;4988718;28;20037;-85
2022/04/07 09:23:21;;;;;;;0.60;0.32;;;9.80;99.90;;;;;;4961542;28;20030;-86
2022/04/07 09:25:49;;;;;;;0.40;0.30;;;9.90;99.90;;;;;;4953431;28;20033;-87
2022/04/07 09:28:46;;;;;;;0.95;0.40;;;9.90;99.90;;;;;;4976851;28;20099;-89
2022/04/07 09:31:13;;;;;;;0.95;0.10;;;9.80;99.90;;;;;;4937891;28;20144;-86
2022/04/07 09:33:41;;;;;;;0.28;0.20;;;9.40;99.90;;;;;;4978175;28;20142;-85
2022/04/07 09:36:21;;;;;;;0.35;0.20;;;9.30;99.90;;;;;;4992622;28;20037;-85
2022/04/07 09:38:53;;;;;;;1.35;0.10;;;9.20;99.90;;;;;;4993964;28;20520;-85
2022/04/07 09:41:21;;;;;;;0.57;0.13;;;9.10;99.90;;;;;;4991599;28;20037;-85
2022/04/07 09:43:51;;;;;;;8.68;0.40;;;9.00;99.90;;;;;;4983282;28;20093;-85
2022/04/07 09:46:18;;;;;;;2.42;0.60;;;8.90;99.90;;;;;;4983580;28;20500;-85
2022/04/07 09:49:07;;;;;;;3.13;0.22;;;8.80;99.90;;;;;;4994630;28;20065;-85
2022/04/07 09:51:48;;;;;;;15.18;0.50;;;8.70;99.90;;;;;;4981278;28;20461;-85
2022/04/07 09:54:16;;;;;;;1.23;0.20;;;8.60;99.90;;;;;;4981586;28;20544;-85
2022/04/07 09:56:42;;;;;;;1.00;0.43;;;8.50;99.90;;;;;;4978198;28;20034;-85
2022/04/07 09:59:16;;;;;;;7.45;0.57;;;8.50;99.90;;;;;;4978629;28;20035;-86
2022/04/07 10:01:51;;;;;;;0.63;0.20;;;8.50;99.90;;;;;;4968796;28;20158;-85
2022/04/07 10:04:20;;;;;;;5.32;0.47;;;8.40;99.90;;;;;;4984685;28;20034;-85
2022/04/07 10:07:11;;;;;;;0.30;0.22;;;8.50;99.90;;;;;;4981804;28;20485;-85
2022/04/07 10:09:46;;;;;;;5.63;0.55;;;8.50;99.90;;;;;;4999534;28;20409;-86
2022/04/07 10:12:11;;;;;;;2.25;0.90;;;8.50;99.90;;;;;;4999480;28;20083;-86
2022/04/07 10:14:37;;;;;;;1.02;0.47;;;8.50;99.90;;;;;;4980386;28;20038;-86
2022/04/07 10:17:24;;;;;;;1.35;0.30;;;8.60;99.90;;;;;;4995518;28;20026;-86
2022/04/07 10:20:00;;;;;;;3.33;0.43;;;8.70;99.90;;;;;;4998646;28;20050;-87
2022/04/07 10:22:45;;;;;;;1.88;0.73;;;8.80;99.90;;;;;;4976061;28;20026;-87
2022/04/07 10:25:23;;;;;;;0.57;0.55;;;8.80;99.90;;;;;;4966073;28;20541;-87
2022/04/07 10:27:55;;;;;;;0.65;0.40;;;8.70;99.90;;;;;;4991981;28;20038;-84
2022/04/07 10:30:21;;;;;;;2.67;0.65;;;8.90;99.90;;;;;;4974013;28;20110;-84
2022/04/07 10:32:48;;;;;;;0.80;0.50;;;9.00;99.90;;;;;;4978470;28;20153;-85
2022/04/07 10:35:38;;;;;;;1.15;0.55;;;9.10;99.90;;;;;;4980544;28;20052;-85
2022/04/07 10:38:07;;;;;;;1.48;0.70;;;9.30;99.90;;;;;;5001936;28;20540;-84
2022/04/07 10:40:39;;;;;;;0.75;0.43;;;9.50;99.90;;;;;;4974258;28;20034;-84
2022/04/07 10:43:13;;;;;;;1.23;0.60;;;9.60;99.90;;;;;;4983478;28;20029;-84
2022/04/07 10:45:39;;;;;;;2.65;0.90;;;9.90;99.90;;;;;;4970244;28;20052;-87
2022/04/07 10:48:21;;;;;;;1.38;0.95;;;10.00;99.90;;;;;;4980058;28;20033;-86
2022/04/07 10:50:50;;;;;;;0.63;0.40;;;10.20;99.90;;;;;;4994170;28;20033;-84
2022/04/07 10:53:37;;;;;;;0.82;0.60;;;10.50;99.90;;;;;;4984326;28;20449;-83
2022/04/07 10:56:11;;;;;;;1.58;1.00;;;10.70;99.90;;;;;;4975461;28;20868;-83
2022/04/07 10:58:54;;;;;;;1.65;0.95;;;10.70;99.90;;;;;;4981158;28;20041;-84
2022/04/07 11:01:29;;;;;;;2.00;0.85;;;11.00;99.90;;;;;;4996185;28;20750;-83
2022/04/07 11:04:16;;;;;;;0.60;0.60;;;11.30;99.90;;;;;;5010401;28;20053;-83
2022/04/07 11:07:25;;;;;;;1.15;0.95;;;11.30;99.90;;;;;;5013500;28;20987;-84
2022/04/07 11:10:00;;;;;;;2.40;0.93;;;11.50;99.90;;;;;;5017665;28;20132;-84
2022/04/07 11:12:31;;;;;;;2.22;0.85;;;11.60;99.90;;;;;;5003763;28;20034;-84
2022/04/07 11:15:03;;;;;;;0.60;0.55;;;11.70;99.90;;;;;;5006027;28;20037;-85
2022/04/07 11:17:32;;;;;;;5.35;1.10;;;11.80;99.90;;;;;;4967336;28;20023;-84
2022/04/07 11:20:24;;;;;;;4.03;0.82;;;12.10;99.90;;;;;;4650015;28;10000184;-84
2022/04/07 11:22:51;;;;;;;2.40;0.77;;;12.40;99.90;;;;;;5011066;28;20631;-84
2022/04/07 11:25:37;;;;;;;3.03;0.95;;;12.50;99.90;;;;;;5013950;28;20624;-83
2022/04/07 11:28:03;;;;;;;;;;;12.50;99.90;;;;;;4982952;28;20033;-84
2022/04/07 11:30:47;;;;;;;3.10;0.60;;;12.60;99.90;;;;;;4991944;28;20510;-84
2022/04/07 11:35:59;;;;;;;4.10;0.88;;;12.40;99.90;;;;;;5006891;28;20105;-84
2022/04/07 11:38:27;;;;;;;1.20;0.82;;;12.40;99.90;;;;;;5004695;28;20521;-84
2022/04/07 11:41:05;;;;;;;0.77;0.47;;;12.40;99.90;;;;;;5013612;28;20030;-83
2022/04/07 11:43:32;;;;;;;2.45;0.70;;;12.50;99.90;;;;;;4995099;28;20505;-84
2022/04/07 11:45:58;;;;;;;3.15;0.70;;;12.40;99.90;;;;;;4978038;28;20034;-84
2022/04/07 11:48:33;;;;;;;1.35;0.63;;;12.50;99.90;;;;;;4974878;28;20505;-84
2022/04/07 11:51:01;;;;;;;4.30;0.75;;;12.60;99.90;;;;;;4972565;28;20026;-84
2022/04/07 11:53:28;;;;;;;2.05;0.93;;;12.60;99.90;;;;;;4987760;28;20045;-84
2022/04/07 11:55:54;;;;;;;0.82;0.63;;;12.80;99.90;;;;;;4987246;28;20022;-84
2022/04/07 11:58:19;;;;;;;3.40;1.40;;;12.80;99.90;;;;;;4986039;28;20029;-84
2022/04/07 12:00:45;;;;;;;3.13;0.70;;;12.90;99.90;;;;;;4988961;28;20041;-84
2022/04/07 12:03:12;;;;;;;1.50;0.50;;;13.00;99.90;;;;;;5000054;28;20647;-84
2022/04/07 12:05:43;;;;;;;2.20;0.60;;;13.10;99.90;;;;;;4983466;28;20030;-84
2022/04/07 12:08:14;;;;;;;0.77;0.50;;;13.30;99.90;;;;;;5003922;28;20026;-84
2022/04/07 12:10:43;;;;;;;1.95;0.60;;;13.30;99.90;;;;;;4984629;28;20053;-84
2022/04/07 12:13:09;;;;;;;1.77;0.55;;;13.30;99.90;;;;;;5006480;28;20560;-84
2022/04/07 12:15:36;;;;;;;4.40;0.60;;;13.50;99.90;;;;;;4988182;28;20038;-84
2022/04/07 12:18:08;;;;;;;3.70;0.55;;;13.70;99.90;;;;;;4985397;28;20578;-84
2022/04/07 12:20:37;;;;;;;0.75;0.40;;;14.00;99.90;;;;;;4979426;28;20037;-85
2022/04/07 12:23:09;;;;;;;2.80;0.77;;;14.20;99.90;;;;;;4976318;28;20054;-85
2022/04/07 12:25:40;;;;;;;0.65;0.50;;;14.50;99.90;;;;;;4991620;28;20034;-85
2022/04/07 12:28:33;;;;;;;1.02;0.40;;;14.40;99.90;;;;;;5000270;28;20034;-85
2022/04/07 12:30:59;;;;;;;1.45;0.50;;;14.60;99.90;;;;;;4985258;28;20033;-85
2022/04/07 12:33:44;;;;;;;1.58;0.75;;;14.80;99.90;;;;;;4969239;28;20034;-85
2022/04/07 12:36:30;;;;;;;0.85;0.57;;;14.90;99.90;;;;;;4980623;28;20033;-85
2022/04/07 12:39:05;;;;;;;3.17;0.90;;;14.60;99.90;;;;;;5012167;28;20034;-85
2022/04/07 12:41:54;;;;;;;;;;;14.40;99.90;;;;;;4997873;28;20460;-85
2022/04/07 12:44:22;;;;;;;3.15;1.20;;;14.00;99.90;;;;;;4972490;28;19956;-86
2022/04/07 12:46:51;;;;;;;5.22;1.67;;;13.40;99.90;;;;;;4665093;28;10000196;-85
2022/04/07 12:49:33;;;;;;;6.38;1.70;;;13.10;99.90;;;;;;4989316;28;20042;-85
2022/04/07 12:52:13;;;;;;;4.15;1.15;;;12.90;99.90;;;;;;4978536;28;20133;-86
2022/04/07 12:54:55;;;;;;;5.40;1.27;;;12.40;99.90;;;;;;4989485;28;20072;-85
2022/04/07 12:57:29;;;;;;;8.15;1.77;;;12.20;99.90;;;;;;4993431;28;20045;-87
2022/04/07 12:59:58;;;;;;;3.95;1.20;;;11.70;99.90;;;;;;4978131;28;20726;-87
2022/04/07 13:02:24;;;;;;;8.25;2.20;;;11.60;99.90;;;;;;4991339;28;20094;-87
2022/04/07 13:04:52;;;;;;;4.82;1.50;;;11.50;99.90;;;;;;4974528;28;20132;-86
2022/04/07 13:07:18;;;;;;;4.70;1.33;;;11.50;99.90;;;;;;4973193;28;20030;-86
2022/04/07 13:09:44;;;;;;;5.05;1.25;;;11.50;99.90;;;;;;4975384;28;20144;-86
2022/04/07 13:12:10;;;;;;;5.50;1.08;;;11.40;99.90;;;;;;4979687;28;20033;-85
2022/04/07 13:14:36;;;;;;;7.30;1.50;;;11.40;99.90;;;;;;4975117;28;20473;-86
2022/04/07 13:17:03;;;;;;;6.97;1.83;;;11.30;99.90;;;;;;4974467;28;20112;-86
2022/04/07 13:19:28;;;;;;;3.70;1.30;;;11.20;99.90;;;;;;4995400;28;20410;-87
2022/04/07 13:21:56;;;;;;;3.33;0.98;;;11.00;99.90;;;;;;4978280;28;20030;-86
2022/04/07 13:24:29;;;;;;;1.70;1.00;;;10.90;99.90;;;;;;4989280;28;20037;-86
2022/04/07 13:26:54;;;;;;;3.60;1.00;;;10.60;99.90;;;;;;4980373;28;20763;-86